sensor_id;sensor_type;location;lat;lon;timestamp;pressure;altitude;pressure_sealevel;temperature
71428;BMP280;59246;59.102;37.928;2022-07-23T00:00:32;99958.25;;;21.38
71428;BMP280;59246;59.102;37.928;2022-07-23T00:02:57;99956.69;;;21.37
71428;BMP280;59246;59.102;37.928;2022-07-23T00:05:23;99950.50;;;21.36
71428;BMP280;59246;59.102;37.928;2022-07-23T00:07:49;99957.47;;;21.38
71428;BMP280;59246;59.102;37.928;2022-07-23T00:10:14;99954.00;;;21.37
71428;BMP280;59246;59.102;37.928;2022-07-23T00:12:40;99955.13;;;21.36
71428;BMP280;59246;59.102;37.928;2022-07-23T00:15:07;99949.38;;;21.38
71428;BMP280;59246;59.102;37.928;2022-07-23T00:17:33;99953.19;;;21.36
71428;BMP280;59246;59.102;37.928;2022-07-23T00:19:59;99953.19;;;21.36
71428;BMP280;59246;59.102;37.928;2022-07-23T00:22:26;99962.81;;;21.34
71428;BMP280;59246;59.102;37.928;2022-07-23T00:24:55;99952.69;;;21.31
71428;BMP280;59246;59.102;37.928;2022-07-23T00:27:21;99954.97;;;21.29
71428;BMP280;59246;59.102;37.928;2022-07-23T00:29:46;99955.69;;;21.26
71428;BMP280;59246;59.102;37.928;2022-07-23T00:32:12;99950.63;;;21.24
71428;BMP280;59246;59.102;37.928;2022-07-23T00:34:38;99959.09;;;21.23
71428;BMP280;59246;59.102;37.928;2022-07-23T00:37:10;99964.84;;;21.21
71428;BMP280;59246;59.102;37.928;2022-07-23T00:39:39;99962.06;;;21.18
71428;BMP280;59246;59.102;37.928;2022-07-23T00:42:07;99956.59;;;21.14
71428;BMP280;59246;59.102;37.928;2022-07-23T00:44:34;99976.94;;;21.11
71428;BMP280;59246;59.102;37.928;2022-07-23T00:47:03;99973.41;;;21.07
71428;BMP280;59246;59.102;37.928;2022-07-23T00:49:31;99975.59;;;21.02
71428;BMP280;59246;59.102;37.928;2022-07-23T00:51:56;99984.28;;;20.95
71428;BMP280;59246;59.102;37.928;2022-07-23T00:54:24;99977.97;;;20.87
71428;BMP280;59246;59.102;37.928;2022-07-23T00:56:50;99986.69;;;20.81
71428;BMP280;59246;59.102;37.928;2022-07-23T00:59:16;99975.72;;;20.73
71428;BMP280;59246;59.102;37.928;2022-07-23T01:01:42;99977.91;;;20.68
71428;BMP280;59246;59.102;37.928;2022-07-23T01:04:10;99967.06;;;20.64
71428;BMP280;59246;59.102;37.928;2022-07-23T01:06:37;99973.13;;;20.61
71428;BMP280;59246;59.102;37.928;2022-07-23T01:09:07;99975.38;;;20.59
71428;BMP280;59246;59.102;37.928;2022-07-23T01:11:34;99979.22;;;20.58
71428;BMP280;59246;59.102;37.928;2022-07-23T01:14:11;99975.72;;;20.58
71428;BMP280;59246;59.102;37.928;2022-07-23T01:16:36;99971.03;;;20.55
71428;BMP280;59246;59.102;37.928;2022-07-23T01:19:02;99971.38;;;20.53
71428;BMP280;59246;59.102;37.928;2022-07-23T01:21:34;99964.88;;;20.54
71428;BMP280;59246;59.102;37.928;2022-07-23T01:24:01;99964.06;;;20.53
71428;BMP280;59246;59.102;37.928;2022-07-23T01:26:26;99967.56;;;20.54
71428;BMP280;59246;59.102;37.928;2022-07-23T01:28:52;99963.72;;;20.55
71428;BMP280;59246;59.102;37.928;2022-07-23T01:31:18;99957.66;;;20.58
71428;BMP280;59246;59.102;37.928;2022-07-23T01:33:44;99966.59;;;20.62
71428;BMP280;59246;59.102;37.928;2022-07-23T01:36:10;99968.56;;;20.65
71428;BMP280;59246;59.102;37.928;2022-07-23T01:38:36;99963.66;;;20.67
71428;BMP280;59246;59.102;37.928;2022-07-23T01:41:02;99960.97;;;20.67
71428;BMP280;59246;59.102;37.928;2022-07-23T01:43:27;99960.25;;;20.70
71428;BMP280;59246;59.102;37.928;2022-07-23T01:45:53;99965.38;;;20.76
71428;BMP280;59246;59.102;37.928;2022-07-23T01:48:19;99960.41;;;20.78
71428;BMP280;59246;59.102;37.928;2022-07-23T01:50:47;99959.25;;;20.79
71428;BMP280;59246;59.102;37.928;2022-07-23T01:53:13;99962.41;;;20.81
71428;BMP280;59246;59.102;37.928;2022-07-23T01:55:39;99971.69;;;20.83
71428;BMP280;59246;59.102;37.928;2022-07-23T01:58:05;99970.59;;;20.84
71428;BMP280;59246;59.102;37.928;2022-07-23T02:00:31;99963.25;;;20.85
71428;BMP280;59246;59.102;37.928;2022-07-23T02:02:57;99972.22;;;20.89
71428;BMP280;59246;59.102;37.928;2022-07-23T02:05:25;99969.53;;;20.89
71428;BMP280;59246;59.102;37.928;2022-07-23T02:07:51;99970.75;;;20.91
71428;BMP280;59246;59.102;37.928;2022-07-23T02:10:17;99973.03;;;20.89
71428;BMP280;59246;59.102;37.928;2022-07-23T02:12:42;99975.72;;;20.89
71428;BMP280;59246;59.102;37.928;2022-07-23T02:15:08;99974.00;;;20.81
71428;BMP280;59246;59.102;37.928;2022-07-23T02:17:34;99975.44;;;20.79
71428;BMP280;59246;59.102;37.928;2022-07-23T02:20:00;99969.97;;;20.75
71428;BMP280;59246;59.102;37.928;2022-07-23T02:22:25;99980.00;;;20.75
71428;BMP280;59246;59.102;37.928;2022-07-23T02:24:51;99972.59;;;20.71
71428;BMP280;59246;59.102;37.928;2022-07-23T02:27:17;99974.84;;;20.69
71428;BMP280;59246;59.102;37.928;2022-07-23T02:29:42;99975.22;;;20.68
71428;BMP280;59246;59.102;37.928;2022-07-23T02:32:08;99980.16;;;20.66
71428;BMP280;59246;59.102;37.928;2022-07-23T02:34:34;99978.97;;;20.63
71428;BMP280;59246;59.102;37.928;2022-07-23T02:36:59;99975.16;;;20.64
71428;BMP280;59246;59.102;37.928;2022-07-23T02:39:25;99983.63;;;20.66
71428;BMP280;59246;59.102;37.928;2022-07-23T02:41:51;99983.63;;;20.66
71428;BMP280;59246;59.102;37.928;2022-07-23T02:44:16;99979.91;;;20.71
71428;BMP280;59246;59.102;37.928;2022-07-23T02:46:42;99979.19;;;20.74
71428;BMP280;59246;59.102;37.928;2022-07-23T02:49:07;99982.41;;;20.80
71428;BMP280;59246;59.102;37.928;2022-07-23T02:51:33;99982.84;;;20.82
71428;BMP280;59246;59.102;37.928;2022-07-23T02:53:59;99983.28;;;20.84
71428;BMP280;59246;59.102;37.928;2022-07-23T02:56:24;99981.78;;;20.86
71428;BMP280;59246;59.102;37.928;2022-07-23T02:58:50;99984.22;;;20.91
71428;BMP280;59246;59.102;37.928;2022-07-23T03:01:17;99982.06;;;20.97
71428;BMP280;59246;59.102;37.928;2022-07-23T03:03:42;99978.38;;;21.05
71428;BMP280;59246;59.102;37.928;2022-07-23T03:06:08;99976.94;;;21.11
71428;BMP280;59246;59.102;37.928;2022-07-23T03:08:34;99985.22;;;21.19
71428;BMP280;59246;59.102;37.928;2022-07-23T03:10:59;99979.91;;;21.22
71428;BMP280;59246;59.102;37.928;2022-07-23T03:13:25;99976.56;;;21.29
71428;BMP280;59246;59.102;37.928;2022-07-23T03:15:51;99964.34;;;21.35
71428;BMP280;59246;59.102;37.928;2022-07-23T03:18:17;99974.53;;;21.42
71428;BMP280;59246;59.102;37.928;2022-07-23T03:20:42;99970.75;;;21.46
71428;BMP280;59246;59.102;37.928;2022-07-23T03:23:08;99967.78;;;21.51
71428;BMP280;59246;59.102;37.928;2022-07-23T03:25:34;99961.66;;;21.54
71428;BMP280;59246;59.102;37.928;2022-07-23T03:27:59;99969.41;;;21.56
71428;BMP280;59246;59.102;37.928;2022-07-23T03:30:25;99965.94;;;21.55
71428;BMP280;59246;59.102;37.928;2022-07-23T03:32:51;99964.94;;;21.64
71428;BMP280;59246;59.102;37.928;2022-07-23T03:35:16;99966.69;;;21.75
71428;BMP280;59246;59.102;37.928;2022-07-23T03:37:42;99971.72;;;21.77
71428;BMP280;59246;59.102;37.928;2022-07-23T03:40:08;99964.50;;;21.81
71428;BMP280;59246;59.102;37.928;2022-07-23T03:42:34;99972.34;;;21.90
71428;BMP280;59246;59.102;37.928;2022-07-23T03:44:59;99969.72;;;21.93
71428;BMP280;59246;59.102;37.928;2022-07-23T03:47:26;99971.00;;;21.99
71428;BMP280;59246;59.102;37.928;2022-07-23T03:49:51;99971.22;;;22.14
71428;BMP280;59246;59.102;37.928;2022-07-23T03:52:17;99963.69;;;22.23
71428;BMP280;59246;59.102;37.928;2022-07-23T03:54:43;99972.00;;;22.37
71428;BMP280;59246;59.102;37.928;2022-07-23T03:57:08;99967.22;;;22.50
71428;BMP280;59246;59.102;37.928;2022-07-23T03:59:35;99965.44;;;22.61
71428;BMP280;59246;59.102;37.928;2022-07-23T04:02:03;99972.94;;;22.72
71428;BMP280;59246;59.102;37.928;2022-07-23T04:04:31;99969.94;;;22.77
71428;BMP280;59246;59.102;37.928;2022-07-23T04:06:57;99962.69;;;22.84
71428;BMP280;59246;59.102;37.928;2022-07-23T04:09:22;99970.91;;;22.92
71428;BMP280;59246;59.102;37.928;2022-07-23T04:11:48;99966.78;;;23.01
71428;BMP280;59246;59.102;37.928;2022-07-23T04:14:14;99975.00;;;23.09
71428;BMP280;59246;59.102;37.928;2022-07-23T04:16:39;99970.44;;;23.16
71428;BMP280;59246;59.102;37.928;2022-07-23T04:19:05;99969.31;;;23.17
71428;BMP280;59246;59.102;37.928;2022-07-23T04:21:31;99967.00;;;23.19
71428;BMP280;59246;59.102;37.928;2022-07-23T04:23:56;99952.38;;;23.24
71428;BMP280;59246;59.102;37.928;2022-07-23T04:26:22;99959.84;;;23.34
71428;BMP280;59246;59.102;37.928;2022-07-23T04:28:48;99957.75;;;23.54
71428;BMP280;59246;59.102;37.928;2022-07-23T04:31:17;99957.97;;;23.76
71428;BMP280;59246;59.102;37.928;2022-07-23T04:33:45;99961.97;;;23.89
71428;BMP280;59246;59.102;37.928;2022-07-23T04:36:10;99954.25;;;23.91
71428;BMP280;59246;59.102;37.928;2022-07-23T04:38:36;99952.69;;;23.90
71428;BMP280;59246;59.102;37.928;2022-07-23T04:41:02;99955.78;;;23.88
71428;BMP280;59246;59.102;37.928;2022-07-23T04:43:27;99958.13;;;23.93
71428;BMP280;59246;59.102;37.928;2022-07-23T04:45:53;99957.00;;;23.98
71428;BMP280;59246;59.102;37.928;2022-07-23T04:48:19;99957.81;;;24.02
71428;BMP280;59246;59.102;37.928;2022-07-23T04:50:44;99959.78;;;24.05
71428;BMP280;59246;59.102;37.928;2022-07-23T04:53:10;99960.25;;;24.14
71428;BMP280;59246;59.102;37.928;2022-07-23T04:55:36;99954.44;;;24.16
71428;BMP280;59246;59.102;37.928;2022-07-23T04:58:03;99955.66;;;24.19
71428;BMP280;59246;59.102;37.928;2022-07-23T05:00:31;99959.91;;;24.23
71428;BMP280;59246;59.102;37.928;2022-07-23T05:02:57;99959.97;;;24.27
71428;BMP280;59246;59.102;37.928;2022-07-23T05:05:22;99951.47;;;24.32
71428;BMP280;59246;59.102;37.928;2022-07-23T05:07:48;99953.84;;;24.37
71428;BMP280;59246;59.102;37.928;2022-07-23T05:10:14;99953.47;;;24.39
71428;BMP280;59246;59.102;37.928;2022-07-23T05:12:39;99946.09;;;24.39
71428;BMP280;59246;59.102;37.928;2022-07-23T05:15:05;99946.88;;;24.40
71428;BMP280;59246;59.102;37.928;2022-07-23T05:17:31;99950.00;;;24.42
71428;BMP280;59246;59.102;37.928;2022-07-23T05:19:57;99956.56;;;24.44
71428;BMP280;59246;59.102;37.928;2022-07-23T05:22:22;99953.16;;;24.51
71428;BMP280;59246;59.102;37.928;2022-07-23T05:24:48;99945.03;;;24.54
71428;BMP280;59246;59.102;37.928;2022-07-23T05:27:14;99944.69;;;24.60
71428;BMP280;59246;59.102;37.928;2022-07-23T05:29:41;99953.25;;;24.65
71428;BMP280;59246;59.102;37.928;2022-07-23T05:32:09;99956.38;;;24.71
71428;BMP280;59246;59.102;37.928;2022-07-23T05:34:38;99951.75;;;24.75
71428;BMP280;59246;59.102;37.928;2022-07-23T05:37:06;99952.56;;;24.79
71428;BMP280;59246;59.102;37.928;2022-07-23T05:39:32;99947.50;;;24.81
71428;BMP280;59246;59.102;37.928;2022-07-23T05:41:57;99950.66;;;24.83
71428;BMP280;59246;59.102;37.928;2022-07-23T05:44:23;99955.69;;;24.88
71428;BMP280;59246;59.102;37.928;2022-07-23T05:46:49;99954.53;;;24.89
71428;BMP280;59246;59.102;37.928;2022-07-23T05:49:14;99952.63;;;24.97
71428;BMP280;59246;59.102;37.928;2022-07-23T05:51:40;99947.97;;;24.97
71428;BMP280;59246;59.102;37.928;2022-07-23T05:54:07;99947.22;;;25.00
71428;BMP280;59246;59.102;37.928;2022-07-23T05:56:35;99949.94;;;25.00
71428;BMP280;59246;59.102;37.928;2022-07-23T05:59:01;99950.31;;;25.02
71428;BMP280;59246;59.102;37.928;2022-07-23T06:01:26;99949.97;;;25.04
71428;BMP280;59246;59.102;37.928;2022-07-23T06:03:52;99946.47;;;25.07
71428;BMP280;59246;59.102;37.928;2022-07-23T06:06:18;99935.59;;;25.07
71428;BMP280;59246;59.102;37.928;2022-07-23T06:08:43;99939.91;;;25.12
71428;BMP280;59246;59.102;37.928;2022-07-23T06:11:09;99932.53;;;25.16
71428;BMP280;59246;59.102;37.928;2022-07-23T06:13:35;99935.63;;;25.14
71428;BMP280;59246;59.102;37.928;2022-07-23T06:16:00;99929.81;;;25.16
71428;BMP280;59246;59.102;37.928;2022-07-23T06:18:26;99929.06;;;25.26
71428;BMP280;59246;59.102;37.928;2022-07-23T06:20:52;99932.19;;;25.35
71428;BMP280;59246;59.102;37.928;2022-07-23T06:23:17;99919.78;;;25.38
71428;BMP280;59246;59.102;37.928;2022-07-23T06:25:43;99927.56;;;25.43
71428;BMP280;59246;59.102;37.928;2022-07-23T06:28:09;99921.34;;;25.42
71428;BMP280;59246;59.102;37.928;2022-07-23T06:30:34;99915.50;;;25.48
71428;BMP280;59246;59.102;37.928;2022-07-23T06:33:00;99914.38;;;25.49
71428;BMP280;59246;59.102;37.928;2022-07-23T06:35:25;99913.97;;;25.50
71428;BMP280;59246;59.102;37.928;2022-07-23T06:37:51;99918.63;;;25.57
71428;BMP280;59246;59.102;37.928;2022-07-23T06:40:17;99918.25;;;25.58
71428;BMP280;59246;59.102;37.928;2022-07-23T06:42:42;99908.16;;;25.59
71428;BMP280;59246;59.102;37.928;2022-07-23T06:45:08;99910.09;;;25.65
71428;BMP280;59246;59.102;37.928;2022-07-23T06:47:37;99905.44;;;25.73
71428;BMP280;59246;59.102;37.928;2022-07-23T06:50:04;99900.78;;;25.77
71428;BMP280;59246;59.102;37.928;2022-07-23T06:52:30;99911.28;;;25.82
71428;BMP280;59246;59.102;37.928;2022-07-23T06:54:56;99914.78;;;25.83
71428;BMP280;59246;59.102;37.928;2022-07-23T06:57:21;99916.72;;;25.82
71428;BMP280;59246;59.102;37.928;2022-07-23T06:59:47;99926.81;;;25.85
71428;BMP280;59246;59.102;37.928;2022-07-23T07:02:13;99917.47;;;25.79
71428;BMP280;59246;59.102;37.928;2022-07-23T07:04:39;99912.03;;;25.76
71428;BMP280;59246;59.102;37.928;2022-07-23T07:07:04;99916.69;;;25.79
71428;BMP280;59246;59.102;37.928;2022-07-23T07:09:34;99911.28;;;25.82
71428;BMP280;59246;59.102;37.928;2022-07-23T07:12:03;99921.72;;;25.91
71428;BMP280;59246;59.102;37.928;2022-07-23T07:14:29;99909.69;;;25.92
71428;BMP280;59246;59.102;37.928;2022-07-23T07:16:55;99923.28;;;25.96
71428;BMP280;59246;59.102;37.928;2022-07-23T07:19:21;99919.81;;;25.99
71428;BMP280;59246;59.102;37.928;2022-07-23T07:21:46;99908.53;;;25.97
71428;BMP280;59246;59.102;37.928;2022-07-23T07:24:12;99910.47;;;25.93
71428;BMP280;59246;59.102;37.928;2022-07-23T07:26:38;99910.50;;;25.89
71428;BMP280;59246;59.102;37.928;2022-07-23T07:29:05;99907.75;;;25.93
71428;BMP280;59246;59.102;37.928;2022-07-23T07:31:31;99915.13;;;26.03
71428;BMP280;59246;59.102;37.928;2022-07-23T07:33:57;99907.75;;;26.10
71428;BMP280;59246;59.102;37.928;2022-07-23T07:36:23;99911.63;;;26.13
71428;BMP280;59246;59.102;37.928;2022-07-23T07:38:49;99909.69;;;26.14
71428;BMP280;59246;59.102;37.928;2022-07-23T07:41:15;99917.84;;;26.17
71428;BMP280;59246;59.102;37.928;2022-07-23T07:43:41;99902.31;;;26.18
71428;BMP280;59246;59.102;37.928;2022-07-23T07:46:07;99904.22;;;26.21
71428;BMP280;59246;59.102;37.928;2022-07-23T07:48:36;99903.03;;;26.29
71428;BMP280;59246;59.102;37.928;2022-07-23T07:51:03;99908.47;;;26.40
71428;BMP280;59246;59.102;37.928;2022-07-23T07:53:29;99902.66;;;26.38
71428;BMP280;59246;59.102;37.928;2022-07-23T07:55:55;99906.09;;;26.42
71428;BMP280;59246;59.102;37.928;2022-07-23T07:58:25;99900.63;;;26.49
71428;BMP280;59246;59.102;37.928;2022-07-23T08:00:55;99911.13;;;26.61
71428;BMP280;59246;59.102;37.928;2022-07-23T08:03:20;99907.63;;;26.64
71428;BMP280;59246;59.102;37.928;2022-07-23T08:05:46;99904.47;;;26.69
71428;BMP280;59246;59.102;37.928;2022-07-23T08:08:12;99901.38;;;26.74
71428;BMP280;59246;59.102;37.928;2022-07-23T08:10:40;99888.47;;;26.78
71428;BMP280;59246;59.102;37.928;2022-07-23T08:13:05;99903.25;;;26.81
71428;BMP280;59246;59.102;37.928;2022-07-23T08:15:31;99891.19;;;26.82
71428;BMP280;59246;59.102;37.928;2022-07-23T08:17:58;99882.19;;;26.89
71428;BMP280;59246;59.102;37.928;2022-07-23T08:20:25;99889.56;;;26.95
71428;BMP280;59246;59.102;37.928;2022-07-23T08:22:51;99894.22;;;26.98
71428;BMP280;59246;59.102;37.928;2022-07-23T08:25:29;99882.13;;;27.03
71428;BMP280;59246;59.102;37.928;2022-07-23T08:27:55;99891.09;;;27.00
71428;BMP280;59246;59.102;37.928;2022-07-23T08:30:22;99886.81;;;27.03
71428;BMP280;59246;59.102;37.928;2022-07-23T08:33:08;99871.59;;;27.05
71428;BMP280;59246;59.102;37.928;2022-07-23T08:35:50;99873.50;;;27.08
71428;BMP280;59246;59.102;37.928;2022-07-23T08:38:20;99875.88;;;27.06
71428;BMP280;59246;59.102;37.928;2022-07-23T08:40:51;99881.72;;;27.05
71428;BMP280;59246;59.102;37.928;2022-07-23T08:43:29;99872.31;;;27.16
71428;BMP280;59246;59.102;37.928;2022-07-23T08:45:58;99869.19;;;27.14
71428;BMP280;59246;59.102;37.928;2022-07-23T08:48:35;99865.31;;;27.15
71428;BMP280;59246;59.102;37.928;2022-07-23T08:51:04;99869.94;;;27.18
71428;BMP280;59246;59.102;37.928;2022-07-23T08:53:33;99870.28;;;27.24
71428;BMP280;59246;59.102;37.928;2022-07-23T08:56:02;99867.50;;;27.35
71428;BMP280;59246;59.102;37.928;2022-07-23T08:58:29;99865.06;;;27.44
71428;BMP280;59246;59.102;37.928;2022-07-23T09:00:55;99866.63;;;27.45
71428;BMP280;59246;59.102;37.928;2022-07-23T09:03:26;99864.69;;;27.45
71428;BMP280;59246;59.102;37.928;2022-07-23T09:05:53;99859.56;;;27.51
71428;BMP280;59246;59.102;37.928;2022-07-23T09:08:44;99855.31;;;27.50
71428;BMP280;59246;59.102;37.928;2022-07-23T09:11:14;99854.16;;;27.44
71428;BMP280;59246;59.102;37.928;2022-07-23T09:16:25;99850.16;;;27.59
71428;BMP280;59246;59.102;37.928;2022-07-23T09:18:53;99853.19;;;27.68
71428;BMP280;59246;59.102;37.928;2022-07-23T09:21:25;99866.06;;;27.68
71428;BMP280;59246;59.102;37.928;2022-07-23T09:23:59;99847.38;;;27.66
71428;BMP280;59246;59.102;37.928;2022-07-23T09:29:03;99849.19;;;27.80
71428;BMP280;59246;59.102;37.928;2022-07-23T09:31:41;99838.97;;;27.88
71428;BMP280;59246;59.102;37.928;2022-07-23T09:34:18;99847.44;;;27.97
71428;BMP280;59246;59.102;37.928;2022-07-23T09:36:44;99834.81;;;28.10
71428;BMP280;59246;59.102;37.928;2022-07-23T09:39:11;99833.38;;;28.33
71428;BMP280;59246;59.102;37.928;2022-07-23T09:41:45;99831.09;;;28.59
71428;BMP280;59246;59.102;37.928;2022-07-23T09:44:15;99834.13;;;28.64
71428;BMP280;59246;59.102;37.928;2022-07-23T09:46:43;99829.72;;;28.74
71428;BMP280;59246;59.102;37.928;2022-07-23T09:49:17;99833.50;;;28.80
71428;BMP280;59246;59.102;37.928;2022-07-23T09:51:54;99831.63;;;28.77
71428;BMP280;59246;59.102;37.928;2022-07-23T09:54:37;99829.19;;;28.83
71428;BMP280;59246;59.102;37.928;2022-07-23T09:57:12;99829.13;;;28.86
71428;BMP280;59246;59.102;37.928;2022-07-23T09:59:42;99836.69;;;29.02
71428;BMP280;59246;59.102;37.928;2022-07-23T10:02:10;99819.41;;;29.32
71428;BMP280;59246;59.102;37.928;2022-07-23T10:04:37;99826.38;;;29.57
71428;BMP280;59246;59.102;37.928;2022-07-23T10:07:06;99812.91;;;29.86
71428;BMP280;59246;59.102;37.928;2022-07-23T10:09:35;99819.25;;;30.03
71428;BMP280;59246;59.102;37.928;2022-07-23T10:12:09;99826.44;;;29.93
71428;BMP280;59246;59.102;37.928;2022-07-23T10:14:53;99825.97;;;29.78
71428;BMP280;59246;59.102;37.928;2022-07-23T10:17:19;99818.06;;;29.64
71428;BMP280;59246;59.102;37.928;2022-07-23T10:19:45;99815.25;;;29.67
71428;BMP280;59246;59.102;37.928;2022-07-23T10:22:42;99815.63;;;29.86
71428;BMP280;59246;59.102;37.928;2022-07-23T10:25:27;99810.53;;;30.24
71428;BMP280;59246;59.102;37.928;2022-07-23T10:28:24;99828.22;;;30.39
71428;BMP280;59246;59.102;37.928;2022-07-23T10:33:46;99814.81;;;30.78
71428;BMP280;59246;59.102;37.928;2022-07-23T10:41:31;99817.38;;;31.30
71428;BMP280;59246;59.102;37.928;2022-07-23T10:44:32;99823.06;;;31.23
71428;BMP280;59246;59.102;37.928;2022-07-23T10:47:04;99813.47;;;31.31
71428;BMP280;59246;59.102;37.928;2022-07-23T10:49:45;99813.78;;;31.33
71428;BMP280;59246;59.102;37.928;2022-07-23T10:57:28;99809.13;;;32.01
71428;BMP280;59246;59.102;37.928;2022-07-23T11:02:29;99811.31;;;32.07
71428;BMP280;59246;59.102;37.928;2022-07-23T11:05:21;99800.03;;;32.17
71428;BMP280;59246;59.102;37.928;2022-07-23T11:10:36;99794.28;;;32.24
71428;BMP280;59246;59.102;37.928;2022-07-23T11:24:08;99801.66;;;32.28
71428;BMP280;59246;59.102;37.928;2022-07-23T11:26:41;99789.13;;;32.26
71428;BMP280;59246;59.102;37.928;2022-07-23T11:34:41;99787.16;;;32.40
71428;BMP280;59246;59.102;37.928;2022-07-23T11:37:10;99786.03;;;32.50
71428;BMP280;59246;59.102;37.928;2022-07-23T11:39:37;99786.16;;;32.81
71428;BMP280;59246;59.102;37.928;2022-07-23T11:42:05;99792.31;;;33.07
71428;BMP280;59246;59.102;37.928;2022-07-23T11:44:35;99784.66;;;33.02
71428;BMP280;59246;59.102;37.928;2022-07-23T11:47:03;99779.22;;;33.11
71428;BMP280;59246;59.102;37.928;2022-07-23T11:49:31;99775.22;;;33.56
71428;BMP280;59246;59.102;37.928;2022-07-23T11:52:11;99763.50;;;35.76
71428;BMP280;59246;59.102;37.928;2022-07-23T11:55:00;99759.59;;;38.46
71428;BMP280;59246;59.102;37.928;2022-07-23T11:57:34;99754.38;;;40.25
71428;BMP280;59246;59.102;37.928;2022-07-23T12:00:07;99754.56;;;41.97
71428;BMP280;59246;59.102;37.928;2022-07-23T12:02:35;99767.06;;;42.81
71428;BMP280;59246;59.102;37.928;2022-07-23T12:05:01;99759.47;;;43.49
71428;BMP280;59246;59.102;37.928;2022-07-23T12:07:33;99750.66;;;43.96
71428;BMP280;59246;59.102;37.928;2022-07-23T12:10:05;99752.56;;;44.78
71428;BMP280;59246;59.102;37.928;2022-07-23T12:12:39;99743.84;;;45.77
71428;BMP280;59246;59.102;37.928;2022-07-23T12:15:06;99743.84;;;45.77
71428;BMP280;59246;59.102;37.928;2022-07-23T12:17:35;99744.06;;;47.29
71428;BMP280;59246;59.102;37.928;2022-07-23T12:20:08;99735.53;;;47.96
71428;BMP280;59246;59.102;37.928;2022-07-23T12:22:39;99743.69;;;48.47
71428;BMP280;59246;59.102;37.928;2022-07-23T12:25:10;99726.09;;;48.16
71428;BMP280;59246;59.102;37.928;2022-07-23T12:27:36;99736.78;;;48.33
71428;BMP280;59246;59.102;37.928;2022-07-23T12:32:49;99716.66;;;49.25
71428;BMP280;59246;59.102;37.928;2022-07-23T12:35:16;99729.41;;;49.75
71428;BMP280;59246;59.102;37.928;2022-07-23T12:37:44;99731.59;;;49.85
71428;BMP280;59246;59.102;37.928;2022-07-23T12:42:51;99709.53;;;49.91
71428;BMP280;59246;59.102;37.928;2022-07-23T12:45:17;99709.53;;;49.91
71428;BMP280;59246;59.102;37.928;2022-07-23T12:48:01;99700.44;;;50.27
71428;BMP280;59246;59.102;37.928;2022-07-23T12:50:33;99712.19;;;50.23
71428;BMP280;59246;59.102;37.928;2022-07-23T12:53:05;99712.19;;;50.23
71428;BMP280;59246;59.102;37.928;2022-07-23T12:55:30;99712.09;;;49.96
71428;BMP280;59246;59.102;37.928;2022-07-23T12:58:08;99712.00;;;49.87
71428;BMP280;59246;59.102;37.928;2022-07-23T13:00:53;99696.34;;;49.68
71428;BMP280;59246;59.102;37.928;2022-07-23T13:03:31;99702.16;;;49.53
71428;BMP280;59246;59.102;37.928;2022-07-23T13:05:58;99695.38;;;50.08
71428;BMP280;59246;59.102;37.928;2022-07-23T13:08:25;99695.38;;;50.08
71428;BMP280;59246;59.102;37.928;2022-07-23T13:10:51;99697.72;;;50.19
71428;BMP280;59246;59.102;37.928;2022-07-23T13:13:20;99691.06;;;50.42
71428;BMP280;59246;59.102;37.928;2022-07-23T13:15:46;99691.06;;;50.42
71428;BMP280;59246;59.102;37.928;2022-07-23T13:18:12;99689.09;;;50.61
71428;BMP280;59246;59.102;37.928;2022-07-23T13:20:37;99690.53;;;51.92
71428;BMP280;59246;59.102;37.928;2022-07-23T13:23:07;99675.81;;;52.94
71428;BMP280;59246;59.102;37.928;2022-07-23T13:25:33;99675.81;;;52.94
71428;BMP280;59246;59.102;37.928;2022-07-23T13:27:59;99679.28;;;52.83
71428;BMP280;59246;59.102;37.928;2022-07-23T13:30:25;99680.78;;;52.43
71428;BMP280;59246;59.102;37.928;2022-07-23T13:32:51;99680.94;;;51.39
71428;BMP280;59246;59.102;37.928;2022-07-23T13:35:17;99686.19;;;50.69
71428;BMP280;59246;59.102;37.928;2022-07-23T13:37:42;99686.19;;;50.69
71428;BMP280;59246;59.102;37.928;2022-07-23T13:40:08;99685.09;;;51.01
71428;BMP280;59246;59.102;37.928;2022-07-23T13:42:34;99683.97;;;51.70
71428;BMP280;59246;59.102;37.928;2022-07-23T13:44:59;99680.94;;;51.39
71428;BMP280;59246;59.102;37.928;2022-07-23T13:47:25;99675.28;;;51.39
71428;BMP280;59246;59.102;37.928;2022-07-23T13:49:51;99668.25;;;49.95
71428;BMP280;59246;59.102;37.928;2022-07-23T13:52:17;99668.25;;;49.95
71428;BMP280;59246;59.102;37.928;2022-07-23T13:54:42;99669.94;;;43.87
71428;BMP280;59246;59.102;37.928;2022-07-23T13:57:08;99671.72;;;41.40
71428;BMP280;59246;59.102;37.928;2022-07-23T13:59:35;99659.41;;;39.55
71428;BMP280;59246;59.102;37.928;2022-07-23T14:02:04;99650.38;;;38.43
71428;BMP280;59246;59.102;37.928;2022-07-23T14:04:30;99661.72;;;37.32
71428;BMP280;59246;59.102;37.928;2022-07-23T14:06:56;99662.22;;;36.51
71428;BMP280;59246;59.102;37.928;2022-07-23T14:09:23;99660.00;;;35.87
71428;BMP280;59246;59.102;37.928;2022-07-23T14:11:49;99660.16;;;35.35
71428;BMP280;59246;59.102;37.928;2022-07-23T14:14:17;99646.97;;;34.97
71428;BMP280;59246;59.102;37.928;2022-07-23T14:16:43;99652.69;;;34.66
71428;BMP280;59246;59.102;37.928;2022-07-23T14:19:10;99652.44;;;34.36
71428;BMP280;59246;59.102;37.928;2022-07-23T14:21:36;99653.78;;;34.04
71428;BMP280;59246;59.102;37.928;2022-07-23T14:24:01;99649.72;;;33.68
71428;BMP280;59246;59.102;37.928;2022-07-23T14:26:27;99646.44;;;33.42
71428;BMP280;59246;59.102;37.928;2022-07-23T14:28:53;99635.75;;;33.13
71428;BMP280;59246;59.102;37.928;2022-07-23T14:31:19;99634.28;;;32.90
71428;BMP280;59246;59.102;37.928;2022-07-23T14:33:44;99635.25;;;32.74
71428;BMP280;59246;59.102;37.928;2022-07-23T14:36:10;99636.13;;;32.49
71428;BMP280;59246;59.102;37.928;2022-07-23T14:38:35;99635.59;;;32.41
71428;BMP280;59246;59.102;37.928;2022-07-23T14:41:01;99630.72;;;32.23
71428;BMP280;59246;59.102;37.928;2022-07-23T14:43:27;99629.03;;;32.04
71428;BMP280;59246;59.102;37.928;2022-07-23T14:45:53;99624.75;;;31.90